Overview Statistics Trail Chart Weather Telemetry Raw packets
 

This is the latest recevied weather packets stored in our database for station/object ED4YAF-13. If no packets are shown the sender has not sent any weather packets the latest 10 day(s).

<< 11 12 13 14 15 16 17 >>
Time Temp. Humidity Pressure Rain* Wind** Luminosity Snow
1788309764 17.22° C 59% 1019.8 hPa - - - -
1788308852 17.22° C 61% 1019.9 hPa - - - -
1788307952 17.22° C 62% 1020.1 hPa - - - -
1788307052 17.22° C 61% 1020 hPa - - - -
1788306152 17.22° C 62% 1020 hPa - - - -
1788305252 17.22° C 64% 1020.1 hPa - - - -
1788304360 17.22° C 65% 1020.1 hPa - - - -
1788303452 17.22° C 62% 1019.8 hPa - - - -
1788302552 17.22° C 64% 1020 hPa - - - -
1788301647 17.22° C 65% 1019.8 hPa - - - -
1788300816 17.22° C 69% 1020 hPa - - - -
1788300747 17.22° C 69% 1020 hPa - - - -
1788299843 17.22° C 67% 1020 hPa - - - -
1788299027 17.22° C 65% 1019.7 hPa - - - -
1788298937 17.22° C 65% 1019.7 hPa - - - -
1788298250 17.22° C 63% 1019.7 hPa - - - -
1788298037 17.22° C 63% 1019.7 hPa - - - -
1788297128 17.22° C 65% 1019.7 hPa - - - -
1788296222 17.22° C 66% 1019.6 hPa - - - -
1788295322 17.22° C 66% 1019.6 hPa - - - -
1788294422 17.22° C 66% 1019.4 hPa - - - -
1788293522 17.22° C 66% 1019.2 hPa - - - -
1788292622 17.78° C 65% 1018.8 hPa - - - -
1788291711 17.78° C 63% 1018.4 hPa - - - -
1788290807 18.33° C 61% 1018 hPa - - - -

* Rain since midnight (hover to see other rain measurements)
** Current wind speed in m/s (hover to see current wind gust speed)